^^

..:: Storico WU ::..




Lo storico viene creato da WUnderground con i dati che la stazione Meteomincio invia al loro server. L' aggiornamento viene fatto ogni 5 minuti circa, tuttavia possono esserci intervalli pił ampi a causa di errori, interruzioni di servizio o problemi nell' invio tramite FTP.


Storico stazione MeteoMincio
Giorno Sommario per Marzo 16, 2022 Unità:  Inglese    Metrico   Entrambi
Giorno Settimana Mese Anno
  Max: Min: Media:
Temperatura: 64.4 °F 46.4 °F 54 °F
Dew Point: 50 °F 42.8 °F 45.5 °F
Umidità: 89% 59% 74%
Velocità vento: 15.5mph 0mph 5.6mph
Raffica: 21.7mph - -
Direzione- - South
Pressione: 30.4 in 30.2 in -
Precipitazioni: 0 in    
 
 
Tabulato Dati per Marzo 16, 2022
Ora Temperatura Dew Point Pressione Direzione Velocità vento Raffica Umidità Intensità pioggia (oraria) Info solare Situazione
00:04 48.2 °F 42.8 °F 30.4 in ESE 1.2 mph 2.5 mph 77% 0 in 0.00 W/m2 unknown
00:09 48.2 °F 42.8 °F 30.4 in ESE 1.2 mph 2.5 mph 78% 0 in 0.00 W/m2 unknown
00:14 48.2 °F 42.8 °F 30.4 in Calm   1.9 mph 77% 0 in 0.00 W/m2 unknown
00:19 50 °F 42.8 °F 30.4 in ESE 1.2 mph 2.5 mph 77% 0 in 0.00 W/m2 unknown
00:24 48.2 °F 42.8 °F 30.4 in ESE 1.9 mph 2.5 mph 78% 0 in 0.00 W/m2 unknown
00:29 48.2 °F 42.8 °F 30.4 in ENE 3.1 mph 3.7 mph 79% 0 in 0.00 W/m2 unknown
00:34 48.2 °F 42.8 °F 30.4 in ENE 2.5 mph 3.7 mph 80% 0 in 0.00 W/m2 unknown
00:39 48.2 °F 42.8 °F 30.4 in ENE 2.5 mph 3.7 mph 80% 0 in 0.00 W/m2 unknown
00:44 48.2 °F 42.8 °F 30.4 in ENE 1.2 mph 3.1 mph 80% 0 in 0.00 W/m2 unknown
00:49 48.2 °F 42.8 °F 30.4 in ESE 2.5 mph 3.7 mph 80% 0 in 0.00 W/m2 unknown
00:54 48.2 °F 42.8 °F 30.4 in ESE 3.1 mph 3.7 mph 80% 0 in 0.00 W/m2 unknown
00:59 48.2 °F 42.8 °F 30.4 in SE 1.9 mph 3.7 mph 81% 0 in 0.00 W/m2 unknown
01:04 48.2 °F 42.8 °F 30.4 in Calm   3.1 mph 81% 0 in 0.00 W/m2 unknown
01:09 48.2 °F 42.8 °F 30.4 in Calm     81% 0 in 0.00 W/m2 unknown
01:14 48.2 °F 42.8 °F 30.4 in Calm     81% 0 in 0.00 W/m2 unknown
01:19 48.2 °F 42.8 °F 30.4 in Calm     82% 0 in 0.00 W/m2 unknown
01:24 48.2 °F 42.8 °F 30.4 in Calm     82% 0 in 0.00 W/m2 unknown
01:29 48.2 °F 42.8 °F 30.4 in Calm     82% 0 in 0.00 W/m2 unknown
01:34 48.2 °F 42.8 °F 30.4 in SSW 2.5 mph 3.7 mph 81% 0 in 0.00 W/m2 unknown
01:39 50 °F 42.8 °F 30.4 in SW 2.5 mph 3.7 mph 80% 0 in 0.00 W/m2 unknown
01:44 50 °F 42.8 °F 30.4 in SW 3.1 mph 3.7 mph 79% 0 in 0.00 W/m2 unknown
01:49 50 °F 42.8 °F 30.4 in SSW 3.1 mph 3.7 mph 77% 0 in 0.00 W/m2 unknown
01:54 50 °F 42.8 °F 30.4 in SW 3.7 mph 5 mph 76% 0 in 0.00 W/m2 unknown
01:59 50 °F 42.8 °F 30.4 in SW 3.1 mph 5 mph 76% 0 in 0.00 W/m2 unknown
02:04 50 °F 42.8 °F 30.4 in SW 3.7 mph 5 mph 76% 0 in 0.00 W/m2 unknown
02:09 50 °F 42.8 °F 30.4 in WSW 4.3 mph 6.2 mph 76% 0 in 0.00 W/m2 unknown
02:14 50 °F 42.8 °F 30.4 in WSW 3.7 mph 6.2 mph 77% 0 in 0.00 W/m2 unknown
02:19 50 °F 42.8 °F 30.3 in WSW 4.3 mph 6.2 mph 77% 0 in 0.00 W/m2 unknown
02:24 50 °F 42.8 °F 30.3 in WSW 4.3 mph 6.2 mph 77% 0 in 0.00 W/m2 unknown
02:29 50 °F 42.8 °F 30.3 in WSW 3.7 mph 6.2 mph 77% 0 in 0.00 W/m2 unknown
02:34 50 °F 42.8 °F 30.3 in WSW 3.1 mph 3.7 mph 77% 0 in 0.00 W/m2 unknown
02:39 50 °F 42.8 °F 30.3 in WSW 2.5 mph 3.7 mph 78% 0 in 0.00 W/m2 unknown
02:44 50 °F 42.8 °F 30.3 in SW 3.1 mph 3.7 mph 78% 0 in 0.00 W/m2 unknown
02:49 50 °F 42.8 °F 30.3 in SW 3.7 mph 5 mph 77% 0 in 0.00 W/m2 unknown
02:54 50 °F 42.8 °F 30.3 in WSW 3.1 mph 5 mph 77% 0 in 0.00 W/m2 unknown
02:59 50 °F 42.8 °F 30.3 in WSW 3.7 mph 5 mph 77% 0 in 0.00 W/m2 unknown
03:04 50 °F 42.8 °F 30.3 in West 3.1 mph 5 mph 77% 0 in 0.00 W/m2 unknown
03:09 50 °F 42.8 °F 30.3 in WSW 2.5 mph 3.7 mph 77% 0 in 0.00 W/m2 unknown
03:14 50 °F 42.8 °F 30.3 in SW 1.9 mph 3.1 mph 77% 0 in 0.00 W/m2 unknown
03:19 50 °F 42.8 °F 30.3 in SW 1.9 mph 3.7 mph 77% 0 in 0.00 W/m2 unknown
03:24 50 °F 42.8 °F 30.3 in WSW 1.2 mph 3.1 mph 77% 0 in 0.00 W/m2 unknown
03:29 50 °F 42.8 °F 30.3 in WSW 1.2 mph 2.5 mph 77% 0 in 0.00 W/m2 unknown
03:34 50 °F 42.8 °F 30.3 in WSW 1.9 mph 2.5 mph 78% 0 in 0.00 W/m2 unknown
03:39 50 °F 42.8 °F 30.3 in WSW 1.2 mph 2.5 mph 79% 0 in 0.00 W/m2 unknown
03:44 48.2 °F 42.8 °F 30.3 in WSW 1.9 mph 3.7 mph 79% 0 in 0.00 W/m2 unknown
03:49 48.2 °F 42.8 °F 30.3 in WSW 2.5 mph 3.7 mph 80% 0 in 0.00 W/m2 unknown
03:54 48.2 °F 42.8 °F 30.3 in WSW 1.9 mph 3.7 mph 80% 0 in 0.00 W/m2 unknown
03:59 48.2 °F 42.8 °F 30.3 in WSW 1.2 mph 3.1 mph 80% 0 in 0.00 W/m2 unknown
04:04 48.2 °F 42.8 °F 30.3 in West 1.2 mph 2.5 mph 79% 0 in 0.00 W/m2 unknown
04:09 48.2 °F 42.8 °F 30.3 in West 1.2 mph 1.9 mph 80% 0 in 0.00 W/m2 unknown
04:14 48.2 °F 42.8 °F 30.3 in Calm   1.2 mph 79% 0 in 0.00 W/m2 unknown
04:19 48.2 °F 42.8 °F 30.3 in Calm     79% 0 in 0.00 W/m2 unknown
04:24 48.2 °F 42.8 °F 30.3 in Calm     79% 0 in 0.00 W/m2 unknown
04:29 48.2 °F 42.8 °F 30.3 in West 1.2 mph 2.5 mph 79% 0 in 0.00 W/m2 unknown
04:34 50 °F 42.8 °F 30.3 in West 1.9 mph 2.5 mph 78% 0 in 0.00 W/m2 unknown
04:39 48.2 °F 42.8 °F 30.3 in WNW 1.9 mph 3.7 mph 79% 0 in 0.00 W/m2 unknown
04:44 48.2 °F 42.8 °F 30.3 in West 2.5 mph 3.7 mph 79% 0 in 0.00 W/m2 unknown
04:49 48.2 °F 42.8 °F 30.3 in West 2.5 mph 3.7 mph 79% 0 in 0.00 W/m2 unknown
04:54 48.2 °F 42.8 °F 30.3 in WNW 2.5 mph 3.7 mph 79% 0 in 0.00 W/m2 unknown
04:59 48.2 °F 42.8 °F 30.3 in WNW 1.2 mph 3.1 mph 79% 0 in 0.00 W/m2 unknown
05:04 48.2 °F 42.8 °F 30.3 in West 1.2 mph 1.9 mph 79% 0 in 0.00 W/m2 unknown
05:09 48.2 °F 42.8 °F 30.3 in Calm   1.2 mph 81% 0 in 0.00 W/m2 unknown
05:14 48.2 °F 42.8 °F 30.3 in NE 1.9 mph 3.1 mph 83% 0 in 0.00 W/m2 unknown
05:19 48.2 °F 42.8 °F 30.3 in NE 2.5 mph 3.7 mph 84% 0 in 0.00 W/m2 unknown
05:24 48.2 °F 42.8 °F 30.3 in NE 2.5 mph 3.7 mph 84% 0 in 0.00 W/m2 unknown
05:29 48.2 °F 42.8 °F 30.3 in NE 1.2 mph 3.7 mph 85% 0 in 0.00 W/m2 unknown
05:34 48.2 °F 42.8 °F 30.3 in Calm   1.9 mph 85% 0 in 0.00 W/m2 unknown
05:39 48.2 °F 42.8 °F 30.3 in Calm   1.2 mph 85% 0 in 0.00 W/m2 unknown
05:44 48.2 °F 42.8 °F 30.3 in NE 1.2 mph 2.5 mph 85% 0 in 0.00 W/m2 unknown
05:49 46.4 °F 42.8 °F 30.3 in NE 1.2 mph 2.5 mph 85% 0 in 0.00 W/m2 unknown
05:54 46.4 °F 42.8 °F 30.3 in NE 0.6 mph 1.9 mph 85% 0 in 0.00 W/m2 unknown
05:59 48.2 °F 42.8 °F 30.3 in NE 0.6 mph 1.2 mph 85% 0 in 0.00 W/m2 unknown
06:04 48.2 °F 42.8 °F 30.3 in WNW 1.9 mph 2.5 mph 85% 0 in 0.00 W/m2 unknown
06:09 48.2 °F 44.6 °F 30.3 in WSW 2.5 mph 3.7 mph 89% 0 in 0.00 W/m2 unknown
06:14 48.2 °F 42.8 °F 30.3 in SW 1.9 mph 3.7 mph 85% 0 in 0.00 W/m2 unknown
06:19 48.2 °F 42.8 °F 30.3 in SW 1.2 mph 3.7 mph 84% 0 in 0.00 W/m2 unknown
06:24 48.2 °F 42.8 °F 30.3 in SW 1.9 mph 3.1 mph 83% 0 in 0.00 W/m2 unknown
06:29 48.2 °F 42.8 °F 30.3 in SW 1.2 mph 3.1 mph 82% 0 in 0.00 W/m2 unknown
06:34 48.2 °F 42.8 °F 30.3 in SW 1.9 mph 3.7 mph 81% 0 in 0.00 W/m2 unknown
06:39 48.2 °F 42.8 °F 30.3 in SW 1.9 mph 3.7 mph 81% 0 in 0.00 W/m2 unknown
06:44 48.2 °F 42.8 °F 30.3 in SW 2.5 mph 3.7 mph 81% 0 in 0.00 W/m2 unknown
06:49 48.2 °F 42.8 °F 30.3 in SW 3.1 mph 3.7 mph 80% 0 in 0.00 W/m2 unknown
06:54 50 °F 44.6 °F 30.3 in SW 3.1 mph 3.7 mph 83% 0 in 5.00 W/m2 unknown
06:59 50 °F 44.6 °F 30.3 in SW 3.1 mph 3.7 mph 83% 0 in 7.00 W/m2 unknown
07:04 50 °F 42.8 °F 30.3 in SW 3.1 mph 3.7 mph 80% 0 in 11.00 W/m2 unknown
07:09 50 °F 42.8 °F 30.3 in SW 3.7 mph 5 mph 80% 0 in 14.00 W/m2 unknown
07:14 50 °F 42.8 °F 30.3 in SW 4.3 mph 6.2 mph 79% 0 in 18.00 W/m2 unknown
07:19 50 °F 42.8 °F 30.3 in WSW 3.7 mph 6.2 mph 79% 0 in 21.00 W/m2 unknown
07:24 50 °F 42.8 °F 30.3 in WSW 3.7 mph 5 mph 80% 0 in 23.00 W/m2 unknown
07:29 50 °F 42.8 °F 30.3 in WSW 3.7 mph 5 mph 80% 0 in 25.00 W/m2 unknown
07:34 50 °F 44.6 °F 30.3 in SW 4.3 mph 6.2 mph 80% 0 in 30.00 W/m2 unknown
07:39 50 °F 44.6 °F 30.3 in SW 3.1 mph 6.2 mph 80% 0 in 33.00 W/m2 unknown
07:44 50 °F 44.6 °F 30.3 in SW 3.7 mph 5 mph 80% 0 in 37.00 W/m2 unknown
07:49 50 °F 42.8 °F 30.3 in WSW 3.1 mph 3.7 mph 79% 0 in 40.00 W/m2 unknown
07:54 50 °F 44.6 °F 30.3 in WSW 3.1 mph 3.7 mph 80% 0 in 42.00 W/m2 unknown
07:59 50 °F 44.6 °F 30.3 in WSW 2.5 mph 3.7 mph 80% 0 in 49.00 W/m2 unknown
08:04 50 °F 44.6 °F 30.3 in WSW 3.7 mph 5 mph 80% 0 in 54.00 W/m2 unknown
08:09 50 °F 44.6 °F 30.3 in WSW 3.1 mph 5 mph 79% 0 in 58.00 W/m2 unknown
08:14 50 °F 44.6 °F 30.3 in WSW 4.3 mph 5 mph 79% 0 in 63.00 W/m2 unknown
08:19 50 °F 44.6 °F 30.3 in West 5 mph 5 mph 79% 0 in 67.00 W/m2 unknown
08:24 50 °F 44.6 °F 30.3 in WNW 3.1 mph 5 mph 79% 0 in 69.00 W/m2 unknown
08:29 50 °F 44.6 °F 30.3 in NNE 3.1 mph 3.7 mph 81% 0 in 76.00 W/m2 unknown
08:34 50 °F 44.6 °F 30.3 in NE 2.5 mph 3.7 mph 82% 0 in 77.00 W/m2 unknown
08:39 50 °F 44.6 °F 30.3 in North 0.6 mph 3.1 mph 82% 0 in 81.00 W/m2 unknown
08:44 50 °F 44.6 °F 30.3 in NNE 3.1 mph 3.7 mph 81% 0 in 86.00 W/m2 unknown
08:49 50 °F 44.6 °F 30.3 in NE 3.7 mph 5 mph 82% 0 in 90.00 W/m2 unknown
08:54 50 °F 44.6 °F 30.3 in NE 4.3 mph 5 mph 82% 0 in 93.00 W/m2 unknown
08:59 50 °F 44.6 °F 30.3 in NE 4.3 mph 5 mph 82% 0 in 100.00 W/m2 unknown
09:04 50 °F 44.6 °F 30.3 in NE 3.1 mph 5 mph 82% 0 in 100.00 W/m2 unknown
09:09 50 °F 44.6 °F 30.3 in NNE 3.1 mph 3.7 mph 82% 0 in 102.00 W/m2 unknown
09:14 50 °F 44.6 °F 30.3 in NNE 3.7 mph 5 mph 82% 0 in 105.00 W/m2 unknown
09:19 50 °F 44.6 °F 30.3 in NNE 3.7 mph 5 mph 82% 0 in 113.00 W/m2 unknown
09:24 50 °F 44.6 °F 30.3 in NE 3.7 mph 5 mph 82% 0 in 114.00 W/m2 unknown
09:29 50 °F 44.6 °F 30.3 in NE 3.7 mph 5 mph 81% 0 in 127.00 W/m2 unknown
09:34 50 °F 44.6 °F 30.3 in ENE 3.1 mph 5 mph 81% 0 in 130.00 W/m2 unknown
09:39 50 °F 44.6 °F 30.3 in ENE 3.1 mph 5 mph 80% 0 in 139.00 W/m2 unknown
09:44 50 °F 44.6 °F 30.3 in ENE 3.1 mph 5 mph 80% 0 in 144.00 W/m2 unknown
09:49 50 °F 44.6 °F 30.3 in ENE 2.5 mph 3.7 mph 80% 0 in 149.00 W/m2 unknown
09:54 50 °F 44.6 °F 30.3 in ENE 2.5 mph 3.7 mph 80% 0 in 155.00 W/m2 unknown
09:59 50 °F 44.6 °F 30.3 in ENE 2.5 mph 3.7 mph 80% 0 in 163.00 W/m2 unknown
10:04 50 °F 44.6 °F 30.3 in NE 1.9 mph 3.7 mph 79% 0 in 163.00 W/m2 unknown
10:09 51.8 °F 44.6 °F 30.3 in East 2.5 mph 3.7 mph 79% 0 in 160.00 W/m2 unknown
10:14 51.8 °F 44.6 °F 30.3 in ENE 2.5 mph 3.7 mph 79% 0 in 163.00 W/m2 unknown
10:19 51.8 °F 46.4 °F 30.3 in ENE 0.6 mph 3.1 mph 80% 0 in 171.00 W/m2 unknown
10:24 51.8 °F 44.6 °F 30.3 in West 1.2 mph 2.5 mph 78% 0 in 179.00 W/m2 unknown
10:29 51.8 °F 46.4 °F 30.3 in West 1.2 mph 2.5 mph 78% 0 in 186.00 W/m2 unknown
10:34 51.8 °F 46.4 °F 30.3 in West 1.9 mph 2.5 mph 78% 0 in 179.00 W/m2 unknown
10:39 51.8 °F 44.6 °F 30.3 in WSW 2.5 mph 3.7 mph 77% 0 in 186.00 W/m2 unknown
10:44 51.8 °F 46.4 °F 30.3 in WSW 4.3 mph 5 mph 77% 0 in 214.00 W/m2 unknown
10:49 51.8 °F 44.6 °F 30.3 in WSW 3.7 mph 5 mph 77% 0 in 241.00 W/m2 unknown
10:54 53.6 °F 44.6 °F 30.3 in West 2.5 mph 5 mph 76% 0 in 246.00 W/m2 unknown
10:59 53.6 °F 46.4 °F 30.3 in WNW 2.5 mph 3.7 mph 76% 0 in 260.00 W/m2 unknown
11:04 53.6 °F 46.4 °F 30.3 in WNW 3.1 mph 3.7 mph 75% 0 in 260.00 W/m2 unknown
11:09 53.6 °F 46.4 °F 30.3 in West 3.7 mph 5 mph 75% 0 in 223.00 W/m2 unknown
11:14 53.6 °F 46.4 °F 30.3 in West 3.7 mph 6.2 mph 75% 0 in 246.00 W/m2 unknown
11:19 53.6 °F 46.4 °F 30.3 in WNW 3.7 mph 6.2 mph 74% 0 in 246.00 W/m2 unknown
11:24 53.6 °F 46.4 °F 30.3 in NW 3.7 mph 6.2 mph 75% 0 in 272.00 W/m2 unknown
11:29 53.6 °F 46.4 °F 30.3 in West 4.3 mph 6.2 mph 74% 0 in 287.00 W/m2 unknown
11:34 55.4 °F 46.4 °F 30.3 in WNW 5.6 mph 6.8 mph 74% 0 in 322.00 W/m2 unknown
11:39 55.4 °F 46.4 °F 30.3 in WNW 5.6 mph 6.8 mph 72% 0 in 357.00 W/m2 unknown
11:44 55.4 °F 46.4 °F 30.3 in West 5.6 mph 6.8 mph 72% 0 in 357.00 W/m2 unknown
11:49 55.4 °F 46.4 °F 30.3 in WNW 5.6 mph 6.8 mph 72% 0 in 295.00 W/m2 unknown
11:54 55.4 °F 46.4 °F 30.3 in WNW 3.7 mph 6.8 mph 72% 0 in 276.00 W/m2 unknown
11:59 55.4 °F 46.4 °F 30.3 in West 5 mph 6.8 mph 72% 0 in 288.00 W/m2 unknown
12:04 55.4 °F 46.4 °F 30.3 in West 5.6 mph 8.1 mph 71% 0 in 339.00 W/m2 unknown
12:09 57.2 °F 46.4 °F 30.3 in WNW 6.2 mph 8.1 mph 70% 0 in 408.00 W/m2 unknown
12:14 57.2 °F 46.4 °F 30.3 in WNW 8.1 mph 9.3 mph 70% 0 in 512.00 W/m2 unknown
12:19 57.2 °F 48.2 °F 30.3 in West 6.8 mph 8.7 mph 70% 0 in 561.00 W/m2 unknown
12:24 57.2 °F 48.2 °F 30.3 in WSW 6.8 mph 8.1 mph 70% 0 in 606.00 W/m2 unknown
12:29 59 °F 48.2 °F 30.3 in West 5 mph 8.1 mph 70% 0 in 647.00 W/m2 unknown
12:34 59 °F 48.2 °F 30.3 in WSW 6.8 mph 10.6 mph 68% 0 in 643.00 W/m2 unknown
12:39 59 °F 48.2 °F 30.3 in WSW 7.5 mph 11.2 mph 67% 0 in 663.00 W/m2 unknown
12:44 59 °F 48.2 °F 30.3 in West 8.1 mph 11.8 mph 67% 0 in 584.00 W/m2 unknown
12:49 60.8 °F 48.2 °F 30.3 in WSW 9.3 mph 11.8 mph 67% 0 in 628.00 W/m2 unknown
12:54 60.8 °F 48.2 °F 30.3 in West 8.7 mph 11.8 mph 66% 0 in 628.00 W/m2 unknown
12:59 60.8 °F 48.2 °F 30.3 in West 9.3 mph 13 mph 65% 0 in 601.00 W/m2 unknown
13:04 60.8 °F 48.2 °F 30.3 in West 9.3 mph 13 mph 65% 0 in 643.00 W/m2 unknown
13:09 60.8 °F 48.2 °F 30.3 in West 9.3 mph 14.9 mph 64% 0 in 615.00 W/m2 unknown
13:14 60.8 °F 48.2 °F 30.2 in West 13.7 mph 16.2 mph 64% 0 in 608.00 W/m2 unknown
13:19 62.6 °F 50 °F 30.2 in West 9.9 mph 16.2 mph 64% 0 in 554.00 W/m2 unknown
13:24 62.6 °F 50 °F 30.2 in West 9.9 mph 14.3 mph 63% 0 in 570.00 W/m2 unknown
13:29 62.6 °F 48.2 °F 30.2 in West 9.9 mph 14.3 mph 62% 0 in 540.00 W/m2 unknown
13:34 62.6 °F 50 °F 30.2 in West 9.9 mph 14.3 mph 62% 0 in 471.00 W/m2 unknown
13:39 62.6 °F 48.2 °F 30.2 in West 9.3 mph 13 mph 62% 0 in 577.00 W/m2 unknown
13:44 62.6 °F 50 °F 30.2 in WSW 11.8 mph 17.4 mph 62% 0 in 577.00 W/m2 unknown
13:49 62.6 °F 50 °F 30.2 in West 13.7 mph 17.4 mph 62% 0 in 504.00 W/m2 unknown
13:54 62.6 °F 48.2 °F 30.2 in West 13 mph 17.4 mph 61% 0 in 459.00 W/m2 unknown
13:59 62.6 °F 48.2 °F 30.2 in WSW 12.4 mph 16.8 mph 62% 0 in 427.00 W/m2 unknown
14:04 62.6 °F 48.2 °F 30.2 in West 11.2 mph 14.9 mph 62% 0 in 406.00 W/m2 unknown
14:09 62.6 °F 48.2 °F 30.2 in West 13.7 mph 16.2 mph 62% 0 in 448.00 W/m2 unknown
14:14 62.6 °F 48.2 °F 30.2 in West 9.9 mph 16.2 mph 62% 0 in 406.00 W/m2 unknown
14:19 62.6 °F 48.2 °F 30.2 in West 9.9 mph 14.9 mph 61% 0 in 401.00 W/m2 unknown
14:24 62.6 °F 50 °F 30.2 in West 9.3 mph 14.9 mph 62% 0 in 404.00 W/m2 unknown
14:29 62.6 °F 48.2 °F 30.2 in West 11.2 mph 14.3 mph 61% 0 in 394.00 W/m2 unknown
14:34 62.6 °F 48.2 °F 30.2 in WSW 13 mph 17.4 mph 62% 0 in 408.00 W/m2 unknown
14:39 62.6 °F 48.2 °F 30.2 in West 13 mph 17.4 mph 61% 0 in 420.00 W/m2 unknown
14:44 62.6 °F 48.2 °F 30.2 in West 9.3 mph 16.2 mph 61% 0 in 459.00 W/m2 unknown
14:49 62.6 °F 50 °F 30.2 in West 9.9 mph 13 mph 61% 0 in 459.00 W/m2 unknown
14:54 62.6 °F 50 °F 30.2 in West 8.7 mph 11.8 mph 61% 0 in 445.00 W/m2 unknown
14:59 62.6 °F 50 °F 30.2 in West 9.9 mph 14.3 mph 61% 0 in 420.00 W/m2 unknown
15:04 62.6 °F 48.2 °F 30.2 in West 8.7 mph 14.3 mph 60% 0 in 323.00 W/m2 unknown
15:09 62.6 °F 48.2 °F 30.2 in West 9.9 mph 13 mph 61% 0 in 302.00 W/m2 unknown
15:14 62.6 °F 48.2 °F 30.2 in West 9.9 mph 16.2 mph 60% 0 in 360.00 W/m2 unknown
15:19 62.6 °F 48.2 °F 30.2 in West 8.1 mph 16.2 mph 60% 0 in 348.00 W/m2 unknown
15:24 62.6 °F 50 °F 30.2 in West 9.9 mph 14.3 mph 61% 0 in 276.00 W/m2 unknown
15:29 62.6 °F 48.2 °F 30.2 in West 11.2 mph 14.3 mph 60% 0 in 325.00 W/m2 unknown
15:34 62.6 °F 48.2 °F 30.2 in West 9.9 mph 14.3 mph 60% 0 in 332.00 W/m2 unknown
15:39 62.6 °F 48.2 °F 30.2 in West 9.9 mph 13 mph 60% 0 in 334.00 W/m2 unknown
15:44 62.6 °F 48.2 °F 30.2 in West 8.7 mph 13 mph 60% 0 in 327.00 W/m2 unknown
15:49 62.6 °F 48.2 °F 30.2 in West 8.7 mph 11.8 mph 59% 0 in 295.00 W/m2 unknown
15:54 64.4 °F 48.2 °F 30.2 in WNW 10.6 mph 14.3 mph 59% 0 in 255.00 W/m2 unknown
15:59 62.6 °F 48.2 °F 30.2 in West 9.3 mph 11.8 mph 59% 0 in 236.00 W/m2 unknown
16:04 62.6 °F 48.2 °F 30.2 in West 9.3 mph 13 mph 60% 0 in 209.00 W/m2 unknown
16:09 62.6 °F 48.2 °F 30.2 in WNW 11.2 mph 13 mph 59% 0 in 185.00 W/m2 unknown
16:14 62.6 °F 48.2 °F 30.2 in West 8.1 mph 13 mph 60% 0 in 158.00 W/m2 unknown
16:19 62.6 °F 48.2 °F 30.2 in West 7.5 mph 11.8 mph 61% 0 in 151.00 W/m2 unknown
16:24 62.6 °F 48.2 °F 30.2 in West 7.5 mph 10.6 mph 61% 0 in 142.00 W/m2 unknown
16:29 62.6 °F 48.2 °F 30.2 in West 7.5 mph 9.9 mph 61% 0 in 128.00 W/m2 unknown
16:34 62.6 °F 48.2 °F 30.2 in West 6.8 mph 9.3 mph 62% 0 in 121.00 W/m2 unknown
16:39 62.6 °F 48.2 °F 30.2 in West 6.2 mph 8.7 mph 62% 0 in 121.00 W/m2 unknown
16:44 62.6 °F 48.2 °F 30.2 in WSW 6.2 mph 8.1 mph 62% 0 in 107.00 W/m2 unknown
16:49 62.6 °F 48.2 °F 30.2 in WSW 5.6 mph 8.1 mph 63% 0 in 105.00 W/m2 unknown
16:54 62.6 °F 48.2 °F 30.2 in WSW 5.6 mph 6.8 mph 63% 0 in 100.00 W/m2 unknown
16:59 60.8 °F 50 °F 30.2 in WSW 5.6 mph 6.8 mph 64% 0 in 95.00 W/m2 unknown
17:04 60.8 °F 50 °F 30.2 in WSW 4.3 mph 6.8 mph 64% 0 in 90.00 W/m2 unknown
17:09 60.8 °F 50 °F 30.2 in WSW 3.7 mph 5 mph 64% 0 in 81.00 W/m2 unknown
17:14 60.8 °F 48.2 °F 30.2 in WSW 4.3 mph 6.2 mph 64% 0 in 74.00 W/m2 unknown
17:19 60.8 °F 50 °F 30.2 in WSW 4.3 mph 6.2 mph 65% 0 in 72.00 W/m2 unknown
17:24 60.8 °F 50 °F 30.2 in WSW 4.3 mph 6.2 mph 66% 0 in 70.00 W/m2 unknown
17:29 60.8 °F 50 °F 30.2 in WSW 3.7 mph 6.2 mph 66% 0 in 63.00 W/m2 unknown
17:34 60.8 °F 50 °F 30.2 in WSW 4.3 mph 6.2 mph 67% 0 in 51.00 W/m2 unknown
17:39 60.8 °F 48.2 °F 30.2 in SW 4.3 mph 6.2 mph 66% 0 in 42.00 W/m2 unknown
17:44 60.8 °F 48.2 °F 30.2 in SW 4.3 mph 6.2 mph 66% 0 in 33.00 W/m2 unknown
17:49 60.8 °F 48.2 °F 30.2 in SW 3.7 mph 6.2 mph 67% 0 in 26.00 W/m2 unknown
17:54 59 °F 48.2 °F 30.2 in SW 3.1 mph 5 mph 67% 0 in 21.00 W/m2 unknown
17:59 59 °F 48.2 °F 30.2 in SW 3.1 mph 3.7 mph 68% 0 in 18.00 W/m2 unknown
18:04 59 °F 48.2 °F 30.2 in WSW 2.5 mph 3.7 mph 68% 0 in 12.00 W/m2 unknown
18:09 59 °F 48.2 °F 30.2 in WSW 1.2 mph 3.1 mph 69% 0 in 9.00 W/m2 unknown
18:14 59 °F 48.2 °F 30.2 in SW 1.2 mph 2.5 mph 69% 0 in 7.00 W/m2 unknown
18:19 59 °F 48.2 °F 30.2 in SW 1.2 mph 1.9 mph 70% 0 in 0.00 W/m2 unknown
18:24 59 °F 48.2 °F 30.2 in Calm   1.2 mph 71% 0 in 0.00 W/m2 unknown
18:29 59 °F 48.2 °F 30.2 in Calm     71% 0 in 0.00 W/m2 unknown
18:34 57.2 °F 48.2 °F 30.2 in Calm     71% 0 in 0.00 W/m2 unknown
18:39 57.2 °F 48.2 °F 30.2 in Calm     71% 0 in 0.00 W/m2 unknown
18:44 57.2 °F 48.2 °F 30.2 in Calm     72% 0 in 0.00 W/m2 unknown
18:49 57.2 °F 48.2 °F 30.2 in Calm     72% 0 in 0.00 W/m2 unknown
18:54 57.2 °F 48.2 °F 30.2 in Calm     73% 0 in 0.00 W/m2 unknown
18:59 57.2 °F 48.2 °F 30.2 in Calm   1.9 mph 73% 0 in 0.00 W/m2 unknown
19:04 57.2 °F 48.2 °F 30.2 in ENE 9.3 mph 13 mph 73% 0 in 0.00 W/m2 unknown
19:09 57.2 °F 48.2 °F 30.2 in ENE 9.9 mph 14.3 mph 71% 0 in 0.00 W/m2 unknown
19:14 57.2 °F 46.4 °F 30.2 in East 14.3 mph 19.9 mph 71% 0 in 0.00 W/m2 unknown
19:19 55.4 °F 46.4 °F 30.2 in East 11.2 mph 14.9 mph 71% 0 in 0.00 W/m2 unknown
19:24 55.4 °F 46.4 °F 30.2 in East 9.3 mph 14.9 mph 71% 0 in 0.00 W/m2 unknown
19:29 55.4 °F 46.4 °F 30.2 in East 9.3 mph 13 mph 72% 0 in 0.00 W/m2 unknown
19:34 55.4 °F 46.4 °F 30.2 in East 8.1 mph 13 mph 72% 0 in 0.00 W/m2 unknown
19:39 55.4 °F 46.4 °F 30.2 in East 9.3 mph 13 mph 72% 0 in 0.00 W/m2 unknown
19:44 55.4 °F 46.4 °F 30.2 in East 11.8 mph 14.9 mph 72% 0 in 0.00 W/m2 unknown
19:49 55.4 °F 46.4 °F 30.2 in East 9.3 mph 14.9 mph 72% 0 in 0.00 W/m2 unknown
19:54 55.4 °F 46.4 °F 30.2 in East 10.6 mph 14.9 mph 72% 0 in 0.00 W/m2 unknown
19:59 55.4 °F 46.4 °F 30.2 in East 13.7 mph 18.6 mph 72% 0 in 0.00 W/m2 unknown
20:04 55.4 °F 46.4 °F 30.2 in East 14.3 mph 21.7 mph 71% 0 in 0.00 W/m2 unknown
20:09 55.4 °F 46.4 °F 30.2 in ENE 12.4 mph 21.7 mph 71% 0 in 0.00 W/m2 unknown
20:14 55.4 °F 46.4 °F 30.2 in East 11.8 mph 18 mph 71% 0 in 0.00 W/m2 unknown
20:19 55.4 °F 46.4 °F 30.3 in East 9.3 mph 13 mph 72% 0 in 0.00 W/m2 unknown
20:24 55.4 °F 46.4 °F 30.3 in East 9.9 mph 14.9 mph 73% 0 in 0.00 W/m2 unknown
20:29 55.4 °F 46.4 °F 30.3 in East 12.4 mph 17.4 mph 74% 0 in 0.00 W/m2 unknown
20:34 55.4 °F 46.4 °F 30.3 in East 13 mph 17.4 mph 74% 0 in 0.00 W/m2 unknown
20:39 53.6 °F 46.4 °F 30.3 in East 11.2 mph 18 mph 75% 0 in 0.00 W/m2 unknown
20:44 53.6 °F 46.4 °F 30.3 in East 11.8 mph 16.2 mph 75% 0 in 0.00 W/m2 unknown
20:49 53.6 °F 46.4 °F 30.3 in East 15.5 mph 21.1 mph 75% 0 in 0.00 W/m2 unknown
20:54 53.6 °F 46.4 °F 30.3 in ESE 14.9 mph 21.1 mph 75% 0 in 0.00 W/m2 unknown
20:59 53.6 °F 46.4 °F 30.3 in East 9.3 mph 16.8 mph 75% 0 in 0.00 W/m2 unknown
21:04 53.6 °F 46.4 °F 30.3 in East 12.4 mph 18.6 mph 75% 0 in 0.00 W/m2 unknown
21:09 53.6 °F 46.4 °F 30.3 in East 10.6 mph 18 mph 75% 0 in 0.00 W/m2 unknown
21:14 53.6 °F 46.4 °F 30.3 in East 11.8 mph 16.2 mph 75% 0 in 0.00 W/m2 unknown
21:19 53.6 °F 46.4 °F 30.3 in East 11.8 mph 16.2 mph 75% 0 in 0.00 W/m2 unknown
21:24 53.6 °F 46.4 °F 30.3 in East 9.9 mph 16.2 mph 75% 0 in 0.00 W/m2 unknown
21:29 53.6 °F 46.4 °F 30.3 in East 9.9 mph 14.9 mph 74% 0 in 0.00 W/m2 unknown
21:34 53.6 °F 46.4 °F 30.3 in East 10.6 mph 14.9 mph 74% 0 in 0.00 W/m2 unknown
21:39 53.6 °F 46.4 °F 30.3 in East 9.9 mph 14.3 mph 74% 0 in 0.00 W/m2 unknown
21:44 53.6 °F 44.6 °F 30.3 in East 10.6 mph 14.9 mph 73% 0 in 0.00 W/m2 unknown
21:49 53.6 °F 44.6 °F 30.3 in East 11.8 mph 14.9 mph 73% 0 in 0.00 W/m2 unknown
21:54 53.6 °F 44.6 °F 30.3 in East 11.8 mph 14.9 mph 73% 0 in 0.00 W/m2 unknown
21:59 53.6 °F 44.6 °F 30.3 in East 11.2 mph 17.4 mph 73% 0 in 0.00 W/m2 unknown
22:04 53.6 °F 44.6 °F 30.3 in East 12.4 mph 16.8 mph 72% 0 in 0.00 W/m2 unknown
22:09 53.6 °F 44.6 °F 30.3 in East 13 mph 16.2 mph 72% 0 in 0.00 W/m2 unknown
22:14 53.6 °F 44.6 °F 30.3 in East 9.3 mph 14.9 mph 72% 0 in 0.00 W/m2 unknown
22:19 53.6 °F 44.6 °F 30.3 in East 9.3 mph 11.8 mph 72% 0 in 0.00 W/m2 unknown
22:24 53.6 °F 44.6 °F 30.3 in East 9.9 mph 14.3 mph 73% 0 in 0.00 W/m2 unknown
22:29 53.6 °F 44.6 °F 30.3 in East 10.6 mph 14.3 mph 73% 0 in 0.00 W/m2 unknown
22:34 53.6 °F 44.6 °F 30.3 in East 10.6 mph 14.3 mph 73% 0 in 0.00 W/m2 unknown
22:39 53.6 °F 44.6 °F 30.3 in East 9.9 mph 14.3 mph 73% 0 in 0.00 W/m2 unknown
22:44 53.6 °F 44.6 °F 30.3 in East 9.3 mph 14.3 mph 73% 0 in 0.00 W/m2 unknown
22:49 53.6 °F 44.6 °F 30.3 in East 8.1 mph 13 mph 74% 0 in 0.00 W/m2 unknown
22:54 53.6 °F 44.6 °F 30.3 in East 8.7 mph 14.3 mph 74% 0 in 0.00 W/m2 unknown
22:59 53.6 °F 44.6 °F 30.3 in East 10.6 mph 14.3 mph 74% 0 in 0.00 W/m2 unknown
23:04 53.6 °F 44.6 °F 30.3 in East 9.9 mph 14.3 mph 74% 0 in 0.00 W/m2 unknown
23:09 53.6 °F 44.6 °F 30.3 in East 9.9 mph 14.3 mph 74% 0 in 0.00 W/m2 unknown
23:14 53.6 °F 44.6 °F 30.3 in East 8.7 mph 14.3 mph 74% 0 in 0.00 W/m2 unknown
23:19 53.6 °F 44.6 °F 30.3 in East 8.7 mph 13 mph 74% 0 in 0.00 W/m2 unknown
23:24 53.6 °F 44.6 °F 30.3 in East 8.7 mph 11.8 mph 74% 0 in 0.00 W/m2 unknown
23:29 53.6 °F 44.6 °F 30.3 in East 9.3 mph 14.3 mph 74% 0 in 0.00 W/m2 unknown
23:34 53.6 °F 44.6 °F 30.3 in East 8.7 mph 14.3 mph 74% 0 in 0.00 W/m2 unknown
23:39 53.6 °F 44.6 °F 30.3 in East 8.1 mph 13 mph 75% 0 in 0.00 W/m2 unknown
23:44 53.6 °F 44.6 °F 30.3 in East 8.7 mph 13 mph 75% 0 in 0.00 W/m2 unknown
23:49 53.6 °F 44.6 °F 30.3 in East 9.3 mph 11.8 mph 75% 0 in 0.00 W/m2 unknown
23:54 53.6 °F 44.6 °F 30.3 in East 9.9 mph 14.3 mph 75% 0 in 0.00 W/m2 unknown
23:59 51.8 °F 44.6 °F 30.3 in East 8.7 mph 14.3 mph 75% 0 in 0.00 W/m2 unknown
Stazione Meteorologica MeteoMincio Rivalta s/M (MN)
Con i complimenti di Weather Underground - 4 mb



METEO PILLOLE
La temperatura più bassa in assoluto
Vostok - Antartide
il 21 luglio 1983 presso la stazione russa di Vostok 3420m slm venne registrata la temperatura esterna di -89,2° C.
Share

Non seguire questo link o sarai bannato dal sito!